Time;durP1;ratioP1;P1;durP2;ratioP2;P2;SDS_P1;SDS_P2;PMS_P1;PMS_P2;Temp;Humidity;BMP_temperature;BMP_pressure;BME280_temperature;BME280_humidity;BME280_pressure;Samples;Min_cycle;Max_cycle;Signal;HPM_P1;HPM_P2
2021/06/15 00:00:20;;;;;;;8.43;4.73;;;15.70;99.90;;;;;;4428189;32;20135;-73
2021/06/15 00:02:47;;;;;;;8.37;4.70;;;15.70;99.90;;;;;;4426153;32;20472;-73
2021/06/15 00:05:15;;;;;;;8.90;4.90;;;15.70;99.90;;;;;;4426648;32;20146;-73
2021/06/15 00:07:43;;;;;;;8.53;5.00;;;15.70;99.90;;;;;;4426593;32;20143;-73
2021/06/15 00:10:22;;;;;;;8.10;5.20;;;15.60;99.90;;;;;;4426643;32;20166;-73
2021/06/15 00:12:50;;;;;;;8.23;4.63;;;15.60;99.90;;;;;;4413870;32;20223;-73
2021/06/15 00:15:19;;;;;;;7.83;4.70;;;15.60;99.90;;;;;;4426382;32;20139;-73
2021/06/15 00:17:47;;;;;;;8.03;4.93;;;15.60;99.90;;;;;;4427883;32;20161;-73
2021/06/15 00:20:15;;;;;;;8.60;4.70;;;15.50;99.90;;;;;;4426291;32;20182;-73
2021/06/15 00:22:43;;;;;;;9.23;5.07;;;15.50;99.90;;;;;;4426328;32;20138;-73
2021/06/15 00:25:12;;;;;;;9.40;5.13;;;15.40;99.90;;;;;;4427831;32;20392;-73
2021/06/15 00:27:39;;;;;;;7.47;4.80;;;15.40;99.90;;;;;;4426226;32;20165;-73
2021/06/15 00:30:09;;;;;;;8.07;4.80;;;15.30;99.90;;;;;;4427666;32;20414;-73
2021/06/15 00:32:36;;;;;;;8.30;4.77;;;15.30;99.90;;;;;;4427081;32;20158;-73
2021/06/15 00:35:03;;;;;;;8.27;4.60;;;15.30;99.90;;;;;;4426499;32;20142;-73
2021/06/15 00:37:30;;;;;;;9.47;4.97;;;15.20;99.90;;;;;;4426326;32;20174;-73
2021/06/15 00:39:57;;;;;;;8.63;4.83;;;15.20;99.90;;;;;;4426020;32;20461;-73
2021/06/15 00:42:24;;;;;;;8.83;4.80;;;15.20;99.90;;;;;;4426123;32;20169;-73
2021/06/15 00:44:51;;;;;;;8.87;4.90;;;15.10;99.90;;;;;;4425945;32;20150;-73
2021/06/15 00:47:18;;;;;;;8.43;4.77;;;15.10;99.90;;;;;;4425915;32;20522;-73
2021/06/15 00:49:45;;;;;;;7.40;4.80;;;15.00;99.90;;;;;;4427417;32;20139;-73
2021/06/15 00:52:12;;;;;;;8.63;4.80;;;15.00;99.90;;;;;;4427391;32;20517;-73
2021/06/15 00:54:43;;;;;;;8.07;4.67;;;15.00;99.90;;;;;;4425828;32;20406;-73
2021/06/15 00:57:18;;;;;;;8.77;5.00;;;15.00;99.90;;;;;;4411641;32;20468;-73
2021/06/15 00:59:45;;;;;;;7.00;4.43;;;14.90;99.90;;;;;;4412306;32;20533;-73
2021/06/15 01:02:12;;;;;;;7.03;4.90;;;14.90;99.90;;;;;;4425621;32;20138;-73
2021/06/15 01:04:39;;;;;;;7.30;5.07;;;14.80;99.90;;;;;;4425939;32;20146;-73
2021/06/15 01:07:15;;;;;;;7.93;5.30;;;14.70;99.90;;;;;;4427205;32;20151;-73
2021/06/15 01:09:56;;;;;;;11.43;5.30;;;14.70;99.90;;;;;;4427254;32;20150;-73
2021/06/15 01:12:37;;;;;;;8.03;5.00;;;14.70;99.90;;;;;;4427212;32;20151;-73
2021/06/15 01:15:21;;;;;;;7.43;5.00;;;14.60;99.90;;;;;;4425737;32;20139;-73
2021/06/15 01:17:57;;;;;;;8.23;5.17;;;14.60;99.90;;;;;;4427683;32;20323;-73
2021/06/15 01:20:40;;;;;;;7.93;4.90;;;14.60;99.90;;;;;;4425515;32;20154;-73
2021/06/15 01:23:40;;;;;;;8.77;5.00;;;14.50;99.90;;;;;;4427146;32;20184;-73
2021/06/15 01:26:29;;;;;;;11.50;5.17;;;14.60;99.90;;;;;;4427287;32;20456;-73
2021/06/15 01:29:13;;;;;;;8.40;5.03;;;14.50;99.90;;;;;;4425476;32;20423;-73
2021/06/15 01:31:46;;;;;;;8.57;4.67;;;14.50;99.90;;;;;;4425156;32;20173;-73
2021/06/15 01:34:25;;;;;;;7.90;5.07;;;14.50;99.90;;;;;;4426937;32;20367;-73
2021/06/15 01:36:56;;;;;;;11.07;4.73;;;14.40;99.90;;;;;;4426152;32;20491;-73
2021/06/15 01:39:33;;;;;;;10.30;5.20;;;14.40;99.90;;;;;;4426672;32;20155;-73
2021/06/15 01:42:34;;;;;;;7.17;4.77;;;14.40;99.90;;;;;;4426491;32;20160;-73
2021/06/15 01:45:09;;;;;;;8.57;4.77;;;14.30;99.90;;;;;;4426577;32;20511;-73
2021/06/15 01:47:39;;;;;;;12.17;5.57;;;14.30;99.90;;;;;;4425098;32;20371;-73
2021/06/15 01:50:08;;;;;;;9.10;4.90;;;14.30;99.90;;;;;;4425019;32;20169;-73
2021/06/15 01:52:38;;;;;;;7.93;5.00;;;14.20;99.90;;;;;;4426429;32;20224;-73
2021/06/15 01:55:08;;;;;;;10.07;4.90;;;14.20;99.90;;;;;;4425938;32;20134;-73
2021/06/15 01:57:36;;;;;;;8.43;5.03;;;14.10;99.90;;;;;;4424304;32;20146;-73
2021/06/15 02:00:10;;;;;;;8.47;5.00;;;14.10;99.90;;;;;;4426365;32;20168;-73
2021/06/15 02:02:39;;;;;;;9.63;5.07;;;14.10;99.90;;;;;;4424949;32;20183;-73
2021/06/15 02:05:08;;;;;;;8.33;5.17;;;14.00;99.90;;;;;;4426274;32;20348;-73
2021/06/15 02:07:39;;;;;;;9.97;4.93;;;14.00;99.90;;;;;;4424698;32;20177;-73
2021/06/15 02:10:10;;;;;;;8.13;4.60;;;13.90;99.90;;;;;;4425989;32;20190;-73
2021/06/15 02:12:41;;;;;;;8.73;5.17;;;13.90;99.90;;;;;;4425047;32;20433;-73
2021/06/15 02:15:10;;;;;;;9.57;4.83;;;13.90;99.90;;;;;;4426015;32;20164;-73
2021/06/15 02:17:45;;;;;;;9.57;4.90;;;13.90;99.90;;;;;;4425912;32;20466;-72
2021/06/15 02:20:15;;;;;;;7.80;4.90;;;13.90;99.90;;;;;;4424562;32;20452;-73
2021/06/15 02:22:46;;;;;;;8.97;5.03;;;13.80;99.90;;;;;;4410642;32;20373;-72
2021/06/15 02:25:17;;;;;;;9.17;5.20;;;13.90;99.90;;;;;;4425640;32;20173;-73
2021/06/15 02:27:45;;;;;;;9.40;5.10;;;13.80;99.90;;;;;;4424808;32;20173;-73
2021/06/15 02:30:13;;;;;;;9.60;5.30;;;13.80;99.90;;;;;;4424479;32;20146;-73
2021/06/15 02:32:44;;;;;;;8.77;5.17;;;13.80;99.90;;;;;;4425214;32;20139;-73
2021/06/15 02:35:11;;;;;;;12.93;5.17;;;13.80;99.90;;;;;;4425946;32;20174;-73
2021/06/15 02:37:50;;;;;;;12.10;5.70;;;13.80;99.90;;;;;;4423752;32;20542;-73
2021/06/15 02:40:18;;;;;;;9.67;5.00;;;13.80;99.90;;;;;;4426008;32;20184;-73
2021/06/15 02:42:46;;;;;;;8.17;5.40;;;13.90;99.90;;;;;;4424267;32;20150;-73
2021/06/15 02:45:16;;;;;;;9.33;5.00;;;13.80;99.90;;;;;;4425695;32;20185;-73
2021/06/15 02:47:44;;;;;;;10.20;5.20;;;13.90;99.90;;;;;;4425911;32;20194;-73
2021/06/15 02:50:15;;;;;;;8.23;5.17;;;13.90;99.90;;;;;;4424018;32;20139;-72
2021/06/15 02:52:48;;;;;;;7.73;5.00;;;13.90;99.90;;;;;;4424855;32;20177;-73
2021/06/15 02:55:47;;;;;;;10.60;5.13;;;13.90;99.90;;;;;;4425538;32;20177;-73
2021/06/15 02:58:14;;;;;;;7.57;5.00;;;13.90;99.90;;;;;;4421884;32;20448;-73
2021/06/15 03:00:41;;;;;;;7.50;4.90;;;13.90;99.90;;;;;;4422050;32;20203;-74
2021/06/15 03:03:08;;;;;;;8.97;4.93;;;13.90;99.90;;;;;;4423513;32;20402;-74
2021/06/15 03:05:35;;;;;;;9.93;5.00;;;14.00;99.90;;;;;;4423611;32;20199;-74
2021/06/15 03:08:02;;;;;;;9.77;4.90;;;14.00;99.90;;;;;;4424264;32;20455;-74
2021/06/15 03:10:30;;;;;;;9.03;5.40;;;14.00;99.90;;;;;;4424188;32;20411;-73
2021/06/15 03:13:16;;;;;;;8.33;5.00;;;14.10;99.90;;;;;;4425632;32;20465;-74
2021/06/15 03:15:49;;;;;;;8.53;4.97;;;14.10;99.90;;;;;;4411946;32;20155;-73
2021/06/15 03:18:45;;;;;;;9.83;5.23;;;14.20;99.90;;;;;;4425052;32;20165;-73
2021/06/15 03:21:17;;;;;;;8.97;5.20;;;14.20;99.90;;;;;;4423771;32;20159;-74
2021/06/15 03:23:51;;;;;;;8.37;5.00;;;14.30;99.90;;;;;;4427506;32;20147;-74
2021/06/15 03:26:28;;;;;;;9.10;4.80;;;14.30;99.90;;;;;;4428122;32;20211;-74
2021/06/15 03:28:58;;;;;;;9.60;4.90;;;14.30;99.90;;;;;;4428756;32;20162;-79
2021/06/15 03:31:26;;;;;;;8.27;4.90;;;14.40;99.90;;;;;;4428135;32;20390;-76
2021/06/15 03:33:56;;;;;;;10.60;5.10;;;14.40;99.90;;;;;;4428616;32;20169;-76
2021/06/15 03:36:25;;;;;;;8.77;4.87;;;14.50;99.90;;;;;;4428654;32;20198;-77
2021/06/15 03:38:57;;;;;;;9.03;5.07;;;14.60;99.90;;;;;;4430830;32;20380;-76
2021/06/15 03:41:26;;;;;;;11.77;5.43;;;14.70;99.90;;;;;;4432666;32;20452;-75
2021/06/15 03:43:58;;;;;;;9.37;5.20;;;14.80;99.90;;;;;;4427151;32;20383;-75
2021/06/15 03:46:25;;;;;;;9.53;5.00;;;14.90;99.90;;;;;;4428933;32;20143;-76
2021/06/15 03:48:54;;;;;;;8.93;4.93;;;14.90;99.90;;;;;;4427966;32;20135;-76
2021/06/15 03:51:32;;;;;;;7.70;4.80;;;14.90;99.90;;;;;;4410545;32;20273;-76
2021/06/15 03:54:08;;;;;;;7.30;4.90;;;15.00;99.90;;;;;;4424174;32;20155;-76
2021/06/15 03:56:39;;;;;;;9.73;4.93;;;15.00;99.90;;;;;;4425772;32;20150;-76
2021/06/15 03:59:08;;;;;;;8.50;5.50;;;15.10;99.90;;;;;;4426439;32;20204;-76
2021/06/15 04:01:38;;;;;;;10.60;5.67;;;15.10;99.90;;;;;;4424738;32;20468;-76
2021/06/15 04:04:10;;;;;;;9.77;5.47;;;15.20;99.90;;;;;;4426206;32;20171;-76
2021/06/15 04:06:51;;;;;;;10.50;5.63;;;15.40;99.90;;;;;;4427274;32;20187;-76
2021/06/15 04:09:21;;;;;;;13.13;5.93;;;15.40;99.90;;;;;;4426760;32;20431;-76
2021/06/15 04:11:50;;;;;;;11.90;6.00;;;15.50;99.90;;;;;;4428057;32;20453;-76
2021/06/15 04:14:19;;;;;;;11.77;6.80;;;15.50;99.90;;;;;;4426742;32;20151;-76
2021/06/15 04:16:47;;;;;;;11.20;6.60;;;15.60;99.90;;;;;;4426537;32;20188;-76
2021/06/15 04:19:28;;;;;;;11.47;6.40;;;15.60;99.90;;;;;;4428303;32;20169;-76
2021/06/15 04:21:59;;;;;;;12.63;7.23;;;15.70;99.90;;;;;;4435014;32;20165;-76
2021/06/15 04:24:27;;;;;;;13.07;6.70;;;15.80;99.90;;;;;;4427040;32;20415;-76
2021/06/15 04:26:58;;;;;;;12.10;6.80;;;15.90;99.90;;;;;;4427922;32;20193;-76
2021/06/15 04:29:27;;;;;;;14.57;6.50;;;15.70;99.90;;;;;;4426886;32;20375;-76
2021/06/15 04:31:59;;;;;;;12.93;6.23;;;15.80;99.90;;;;;;4426399;32;20139;-76
2021/06/15 04:34:27;;;;;;;13.00;6.13;;;15.90;99.90;;;;;;4426229;32;20158;-76
2021/06/15 04:37:00;;;;;;;13.27;5.87;;;16.00;99.90;;;;;;4424976;32;20181;-76
2021/06/15 04:39:31;;;;;;;9.87;5.83;;;16.10;99.90;;;;;;4427347;32;20146;-76
2021/06/15 04:42:04;;;;;;;12.80;6.33;;;16.20;99.90;;;;;;4426244;32;20139;-76
2021/06/15 04:44:36;;;;;;;13.93;6.03;;;16.20;99.90;;;;;;4427895;32;20260;-76
2021/06/15 04:47:13;;;;;;;11.27;5.87;;;16.20;99.90;;;;;;4427672;32;20202;-76
2021/06/15 04:50:18;;;;;;;12.80;6.20;;;16.20;99.90;;;;;;4426136;32;20498;-76
2021/06/15 04:52:47;;;;;;;9.60;5.50;;;16.40;99.90;;;;;;4427364;32;20181;-76
2021/06/15 04:55:15;;;;;;;9.90;5.70;;;16.60;99.90;;;;;;4427433;32;20144;-75
2021/06/15 04:57:45;;;;;;;10.93;5.50;;;16.60;99.90;;;;;;4425989;32;20211;-75
2021/06/15 05:00:13;;;;;;;12.47;5.90;;;16.80;99.90;;;;;;4425454;32;20154;-75
2021/06/15 05:02:43;;;;;;;11.43;6.60;;;16.80;99.90;;;;;;4425552;32;20162;-75
2021/06/15 05:05:11;;;;;;;12.53;6.40;;;16.80;99.90;;;;;;4425609;32;20139;-75
2021/06/15 05:07:40;;;;;;;13.43;7.10;;;16.80;99.90;;;;;;4424496;32;20439;-74
2021/06/15 05:10:08;;;;;;;12.60;6.23;;;16.90;99.90;;;;;;4427094;32;20379;-74
2021/06/15 05:12:46;;;;;;;14.27;6.50;;;16.90;99.90;;;;;;4425367;32;20162;-74
2021/06/15 05:15:14;;;;;;;15.93;6.77;;;17.00;99.90;;;;;;4426901;32;20139;-74
2021/06/15 05:17:46;;;;;;;14.73;6.30;;;17.10;99.90;;;;;;4426617;32;20233;-74
2021/06/15 05:20:14;;;;;;;10.67;6.37;;;17.20;99.90;;;;;;4425099;32;20185;-74
2021/06/15 05:22:47;;;;;;;10.70;6.43;;;17.40;99.90;;;;;;4425443;32;20175;-75
2021/06/15 05:25:18;;;;;;;10.17;6.03;;;17.40;99.90;;;;;;4426574;32;20134;-75
2021/06/15 05:27:46;;;;;;;14.10;6.53;;;17.50;99.90;;;;;;4424818;32;20206;-73
2021/06/15 05:30:13;;;;;;;14.67;6.87;;;17.70;99.90;;;;;;4425168;32;20431;-76
2021/06/15 05:32:41;;;;;;;16.00;6.17;;;17.80;99.90;;;;;;4425116;32;20179;-75
2021/06/15 05:35:09;;;;;;;12.77;6.70;;;17.90;99.90;;;;;;4424534;32;20143;-74
2021/06/15 05:37:36;;;;;;;11.90;6.40;;;17.90;99.90;;;;;;4426018;32;20143;-74
2021/06/15 05:40:04;;;;;;;14.73;6.07;;;17.90;99.90;;;;;;4424670;32;20154;-74
2021/06/15 05:42:31;;;;;;;12.87;6.13;;;17.90;99.90;;;;;;4424910;32;20482;-74
2021/06/15 05:44:58;;;;;;;13.20;6.37;;;18.00;99.90;;;;;;4425287;32;20147;-75
2021/06/15 05:47:26;;;;;;;14.57;6.10;;;18.10;99.90;;;;;;4424324;32;20147;-76
2021/06/15 05:49:53;;;;;;;12.40;6.00;;;18.30;99.90;;;;;;4424038;32;20147;-75
2021/06/15 05:52:20;;;;;;;12.20;6.70;;;18.40;99.90;;;;;;4424646;32;20173;-75
2021/06/15 05:54:47;;;;;;;13.20;6.07;;;18.60;99.90;;;;;;4425919;32;20219;-74
2021/06/15 05:57:14;;;;;;;11.70;5.60;;;18.70;99.90;;;;;;4425171;32;20171;-74
2021/06/15 05:59:41;;;;;;;12.10;5.50;;;18.80;99.90;;;;;;4425150;32;20158;-74
2021/06/15 06:02:08;;;;;;;10.70;5.73;;;19.00;99.90;;;;;;4424143;32;20461;-75
2021/06/15 06:04:48;;;;;;;12.43;5.93;;;19.10;99.90;;;;;;4424215;32;20159;-75
2021/06/15 06:10:01;;;;;;;9.87;5.30;;;19.20;99.30;;;;;;4425877;32;20406;-76
2021/06/15 06:12:30;;;;;;;13.53;5.10;;;19.40;98.70;;;;;;4424701;32;20174;-76
2021/06/15 06:14:58;;;;;;;13.33;5.63;;;19.60;98.60;;;;;;4424049;32;20386;-75
2021/06/15 06:17:25;;;;;;;12.40;5.33;;;19.70;97.90;;;;;;4425611;32;20160;-75
2021/06/15 06:20:05;;;;;;;10.53;5.70;;;19.70;97.00;;;;;;4424213;32;20518;-75
2021/06/15 06:22:32;;;;;;;12.00;5.30;;;19.70;96.50;;;;;;4423659;32;20182;-75
2021/06/15 06:25:03;;;;;;;11.77;5.30;;;19.80;96.20;;;;;;4410594;32;20146;-76
2021/06/15 06:27:35;;;;;;;16.50;6.07;;;19.80;96.20;;;;;;4424366;32;20195;-75
2021/06/15 06:30:04;;;;;;;17.50;6.10;;;19.70;96.40;;;;;;4425005;32;20169;-74
2021/06/15 06:32:31;;;;;;;9.53;5.40;;;20.00;95.90;;;;;;4423992;32;20449;-76
2021/06/15 06:34:58;;;;;;;12.73;5.60;;;20.20;96.20;;;;;;4423751;32;20196;-75
2021/06/15 06:37:24;;;;;;;12.40;5.27;;;20.30;95.20;;;;;;4423722;32;20165;-73
2021/06/15 06:39:51;;;;;;;15.43;5.57;;;20.60;95.40;;;;;;4411474;32;20517;-73
2021/06/15 06:42:19;;;;;;;11.57;5.30;;;20.70;93.50;;;;;;4423805;32;20170;-73
2021/06/15 06:44:46;;;;;;;8.47;4.60;;;20.70;93.30;;;;;;4423989;32;20404;-74
2021/06/15 06:47:16;;;;;;;11.07;4.83;;;20.60;92.30;;;;;;4425317;32;20169;-74
2021/06/15 06:49:43;;;;;;;13.13;4.97;;;20.60;91.70;;;;;;4411644;32;20539;-73
2021/06/15 06:52:10;;;;;;;13.30;4.87;;;20.80;92.00;;;;;;4425238;32;20151;-72
2021/06/15 06:54:37;;;;;;;7.83;4.57;;;21.00;92.30;;;;;;4423681;32;20154;-73
2021/06/15 06:57:04;;;;;;;12.77;5.07;;;21.20;93.40;;;;;;4423816;32;20461;-73
2021/06/15 06:59:31;;;;;;;13.80;5.27;;;21.30;90.60;;;;;;4423857;32;20414;-72
2021/06/15 07:01:58;;;;;;;12.07;5.10;;;21.40;90.90;;;;;;4424980;32;20154;-73
2021/06/15 07:04:25;;;;;;;12.27;4.83;;;21.20;90.70;;;;;;4424131;32;20150;-72
2021/06/15 07:06:52;;;;;;;11.50;5.30;;;21.30;90.80;;;;;;4423664;32;20197;-72
2021/06/15 07:09:19;;;;;;;11.70;5.20;;;21.40;90.30;;;;;;4423579;32;20142;-72
2021/06/15 07:11:46;;;;;;;9.17;5.43;;;21.40;87.30;;;;;;4423546;32;20144;-72
2021/06/15 07:14:13;;;;;;;12.20;5.43;;;21.10;89.50;;;;;;4423499;32;20146;-73
2021/06/15 07:16:40;;;;;;;12.17;5.00;;;21.20;88.60;;;;;;4425010;32;20208;-74
2021/06/15 07:19:11;;;;;;;11.17;5.60;;;21.40;90.00;;;;;;4423538;32;20154;-74
2021/06/15 07:21:38;;;;;;;8.53;5.40;;;21.60;90.00;;;;;;4425953;32;20216;-74
2021/06/15 07:24:05;;;;;;;12.07;5.60;;;21.60;89.40;;;;;;4411404;32;20200;-76
2021/06/15 07:26:32;;;;;;;15.50;5.47;;;21.40;88.90;;;;;;4422121;32;20143;-75
2021/06/15 07:29:01;;;;;;;11.50;5.13;;;21.50;90.00;;;;;;4423141;32;20494;-76
2021/06/15 07:31:29;;;;;;;10.83;5.70;;;21.60;89.00;;;;;;4423273;32;20155;-76
2021/06/15 07:33:57;;;;;;;14.03;5.50;;;21.70;88.00;;;;;;4424092;32;20368;-76
2021/06/15 07:36:24;;;;;;;16.47;6.07;;;21.80;87.50;;;;;;4422810;32;20523;-76
2021/06/15 07:38:51;;;;;;;14.13;5.87;;;21.60;83.10;;;;;;4424812;32;20205;-76
2021/06/15 07:41:18;;;;;;;9.50;5.10;;;21.60;84.70;;;;;;4428104;32;20219;-76
2021/06/15 07:43:45;;;;;;;10.03;5.20;;;21.90;85.80;;;;;;4439084;32;20458;-76
2021/06/15 07:46:15;;;;;;;9.57;5.60;;;22.10;85.70;;;;;;4435965;32;20187;-76
2021/06/15 07:48:44;;;;;;;11.23;5.27;;;22.50;86.20;;;;;;4423499;32;20161;-76
2021/06/15 07:51:12;;;;;;;11.93;5.30;;;22.60;80.10;;;;;;4424674;32;20155;-75
2021/06/15 07:53:39;;;;;;;11.03;5.33;;;22.80;80.00;;;;;;4423066;32;20172;-75
2021/06/15 07:56:06;;;;;;;9.53;5.17;;;23.00;77.80;;;;;;4423019;32;20369;-75
2021/06/15 07:58:33;;;;;;;11.83;4.67;;;22.90;75.90;;;;;;4422591;32;20159;-75
2021/06/15 08:01:00;;;;;;;12.37;5.00;;;22.80;75.20;;;;;;4424631;32;20441;-75
2021/06/15 08:03:27;;;;;;;11.63;5.17;;;22.90;75.60;;;;;;4422049;32;20303;-75
2021/06/15 08:05:54;;;;;;;11.50;5.47;;;23.10;76.50;;;;;;4422847;32;20155;-76
2021/06/15 08:08:21;;;;;;;10.73;4.97;;;23.00;75.30;;;;;;4421503;32;20192;-75
2021/06/15 08:10:48;;;;;;;10.88;5.07;;;23.10;74.90;;;;;;4422132;32;20440;-74
2021/06/15 08:13:15;;;;;;;13.13;5.67;;;22.90;72.70;;;;;;4425420;32;20135;-75
2021/06/15 08:15:42;;;;;;;12.77;5.40;;;22.90;72.70;;;;;;4425605;32;20178;-74
2021/06/15 08:18:09;;;;;;;17.12;6.03;;;23.00;71.50;;;;;;4425853;32;20143;-75
2021/06/15 08:20:36;;;;;;;13.77;5.50;;;23.20;73.00;;;;;;4425674;32;20150;-75
2021/06/15 08:23:04;;;;;;;13.80;5.47;;;23.50;71.70;;;;;;4427232;32;20151;-75
2021/06/15 08:25:31;;;;;;;7.72;4.62;;;23.40;67.80;;;;;;4425789;32;20215;-74
2021/06/15 08:27:59;;;;;;;14.32;5.47;;;23.90;65.30;;;;;;4425609;32;20134;-75
2021/06/15 08:30:26;;;;;;;8.75;4.87;;;24.30;65.20;;;;;;4427694;32;20174;-73
2021/06/15 08:32:53;;;;;;;7.68;4.72;;;24.50;63.30;;;;;;4427303;32;20213;-74
2021/06/15 08:35:20;;;;;;;9.40;4.82;;;24.20;63.10;;;;;;4439172;32;20200;-75
2021/06/15 08:37:47;;;;;;;7.50;4.87;;;24.20;62.00;;;;;;4425506;32;20163;-75
2021/06/15 08:40:14;;;;;;;11.77;5.20;;;23.90;62.20;;;;;;4426001;32;20143;-75
2021/06/15 08:42:42;;;;;;;10.27;5.37;;;23.50;63.20;;;;;;4437940;32;20173;-76
2021/06/15 08:45:11;;;;;;;8.98;4.72;;;23.60;64.10;;;;;;4440415;32;20215;-76
2021/06/15 08:47:45;;;;;;;9.85;5.28;;;23.90;62.00;;;;;;4413758;32;20142;-76
2021/06/15 08:50:14;;;;;;;10.18;5.12;;;23.70;61.90;;;;;;4425406;32;20205;-75
2021/06/15 08:52:41;;;;;;;10.48;5.05;;;24.20;61.90;;;;;;4434846;32;20214;-75
2021/06/15 08:55:11;;;;;;;10.25;4.40;;;24.30;61.40;;;;;;4440500;32;20138;-74
2021/06/15 08:57:39;;;;;;;8.70;4.78;;;24.50;61.00;;;;;;4440580;32;20363;-71
2021/06/15 09:00:09;;;;;;;10.48;4.93;;;24.90;58.70;;;;;;4436495;32;20208;-73
2021/06/15 09:02:44;;;;;;;10.63;4.78;;;25.10;56.60;;;;;;4437014;32;20150;-73
2021/06/15 09:05:17;;;;;;;10.00;5.15;;;25.40;55.80;;;;;;4433715;32;20159;-74
2021/06/15 09:08:01;;;;;;;8.57;4.87;;;25.60;55.20;;;;;;4425747;32;20338;-74
2021/06/15 09:10:32;;;;;;;10.52;5.28;;;25.80;54.80;;;;;;4440046;32;20420;-70
2021/06/15 09:13:00;;;;;;;8.82;5.10;;;26.10;55.90;;;;;;4440238;32;20195;-70
2021/06/15 09:15:28;;;;;;;10.38;4.78;;;26.70;53.70;;;;;;4440163;32;20181;-72
2021/06/15 09:17:55;;;;;;;9.15;5.00;;;26.00;54.30;;;;;;4441851;32;20201;-73
2021/06/15 09:20:30;;;;;;;7.75;4.72;;;25.40;56.30;;;;;;4439522;32;20194;-71
2021/06/15 09:23:04;;;;;;;8.63;5.35;;;25.60;56.50;;;;;;4441312;32;20165;-73
2021/06/15 09:25:33;;;;;;;8.90;5.20;;;25.70;55.30;;;;;;4440406;32;20456;-74
2021/06/15 09:28:18;;;;;;;10.32;5.20;;;26.00;55.90;;;;;;4439337;32;20142;-74
2021/06/15 09:31:02;;;;;;;9.55;5.00;;;25.90;55.50;;;;;;4441673;32;20138;-74
2021/06/15 09:33:44;;;;;;;8.88;5.37;;;25.90;56.80;;;;;;4441675;32;20207;-74
2021/06/15 09:36:14;;;;;;;10.05;5.10;;;26.10;55.20;;;;;;4439329;32;20217;-73
2021/06/15 09:38:54;;;;;;;11.85;5.22;;;26.60;56.60;;;;;;4440073;32;20146;-72
2021/06/15 09:41:41;;;;;;;12.68;5.50;;;26.60;55.30;;;;;;4441706;32;20139;-74
2021/06/15 09:44:21;;;;;;;10.20;5.90;;;26.70;53.70;;;;;;4439550;32;20426;-74
2021/06/15 09:46:50;;;;;;;9.10;5.43;;;26.50;54.60;;;;;;4441443;32;20181;-74
2021/06/15 09:49:32;;;;;;;8.15;5.50;;;26.70;54.80;;;;;;4440004;32;20165;-74
2021/06/15 09:52:17;;;;;;;9.25;5.50;;;26.60;54.00;;;;;;4440873;32;20180;-72
2021/06/15 09:54:57;;;;;;;8.82;4.90;;;26.70;53.10;;;;;;4441069;32;20146;-74
2021/06/15 09:57:30;;;;;;;10.23;5.68;;;27.20;53.80;;;;;;4441198;32;20179;-75
2021/06/15 10:00:03;;;;;;;14.07;5.47;;;27.20;52.80;;;;;;4439462;32;20142;-74
2021/06/15 10:02:32;;;;;;;9.45;5.22;;;27.30;51.70;;;;;;4439414;32;20403;-72
2021/06/15 10:05:20;;;;;;;10.40;5.12;;;27.40;53.00;;;;;;4438731;32;20146;-75
2021/06/15 10:07:47;;;;;;;10.23;5.28;;;26.80;51.50;;;;;;4440550;32;20196;-73
2021/06/15 10:10:22;;;;;;;8.40;5.10;;;27.50;51.40;;;;;;4439258;32;20190;-70
2021/06/15 10:12:51;;;;;;;9.00;5.32;;;27.20;51.90;;;;;;4439100;32;20172;-72
2021/06/15 10:15:19;;;;;;;8.95;5.07;;;26.60;52.00;;;;;;4440455;32;20142;-72
2021/06/15 10:17:46;;;;;;;8.82;5.30;;;26.80;54.30;;;;;;4440077;32;20143;-74
2021/06/15 10:20:16;;;;;;;8.32;4.85;;;27.50;52.50;;;;;;4437778;32;20488;-74
2021/06/15 10:22:44;;;;;;;9.63;4.85;;;27.80;51.10;;;;;;4430168;32;20226;-77
2021/06/15 10:25:12;;;;;;;7.60;4.85;;;28.50;50.10;;;;;;4425330;32;20138;-73
2021/06/15 10:27:40;;;;;;;8.68;4.47;;;28.80;49.60;;;;;;4424407;32;20127;-76
2021/06/15 10:30:09;;;;;;;7.45;4.80;;;29.00;46.80;;;;;;4424090;32;20130;-74
2021/06/15 10:32:53;;;;;;;7.62;4.85;;;29.10;47.60;;;;;;4425256;32;20224;-73
2021/06/15 10:35:44;;;;;;;8.40;4.50;;;29.60;46.90;;;;;;4423376;32;20209;-73
2021/06/15 10:38:17;;;;;;;8.65;4.78;;;29.80;47.40;;;;;;4409280;32;20186;-74
2021/06/15 10:40:51;;;;;;;9.00;5.03;;;30.10;45.20;;;;;;4425475;32;20134;-73
2021/06/15 10:43:30;;;;;;;9.45;5.28;;;29.30;46.30;;;;;;4423672;32;20182;-73
2021/06/15 10:46:00;;;;;;;12.48;5.15;;;29.30;46.20;;;;;;4425259;32;20190;-72
2021/06/15 10:48:34;;;;;;;6.93;4.45;;;29.80;47.90;;;;;;4424710;32;20140;-72
2021/06/15 10:51:15;;;;;;;9.75;4.80;;;30.40;45.40;;;;;;4425005;32;20158;-71
2021/06/15 10:53:42;;;;;;;9.27;4.80;;;30.60;47.20;;;;;;4423185;32;20139;-72
2021/06/15 10:56:11;;;;;;;8.52;4.93;;;30.60;46.40;;;;;;4424436;32;20529;-72
2021/06/15 10:58:44;;;;;;;10.30;5.30;;;30.80;46.60;;;;;;4423179;32;20194;-74
2021/06/15 11:01:18;;;;;;;8.63;4.93;;;30.70;44.50;;;;;;4422713;32;20556;-71
2021/06/15 11:03:58;;;;;;;9.10;5.20;;;30.60;46.00;;;;;;4425392;32;20215;-71
2021/06/15 11:06:28;;;;;;;8.77;4.75;;;29.80;45.90;;;;;;4424259;32;20471;-72
2021/06/15 11:09:15;;;;;;;10.27;4.82;;;30.00;48.50;;;;;;4424906;32;20142;-72
2021/06/15 11:12:01;;;;;;;10.23;5.00;;;30.60;47.60;;;;;;4425007;32;20207;-72
2021/06/15 11:14:28;;;;;;;9.48;5.05;;;31.00;43.80;;;;;;4423322;32;20484;-73
2021/06/15 11:17:00;;;;;;;7.68;4.68;;;31.30;44.70;;;;;;4423254;32;20155;-73
2021/06/15 11:19:31;;;;;;;8.25;4.80;;;31.70;44.10;;;;;;4421549;32;20236;-72
2021/06/15 11:22:03;;;;;;;8.25;4.90;;;32.00;42.30;;;;;;4423258;32;20162;-73
2021/06/15 11:24:48;;;;;;;9.23;5.03;;;31.60;43.50;;;;;;4437881;32;20455;-71
2021/06/15 11:27:23;;;;;;;7.90;4.70;;;31.30;43.50;;;;;;4431269;32;20472;-72
2021/06/15 11:29:52;;;;;;;8.63;4.70;;;31.00;45.00;;;;;;4427996;32;20165;-72
2021/06/15 11:32:20;;;;;;;8.57;4.70;;;31.10;44.40;;;;;;4424153;32;20170;-76
2021/06/15 11:34:58;;;;;;;7.93;4.93;;;31.50;43.00;;;;;;4421115;32;20175;-72
2021/06/15 11:37:41;;;;;;;7.22;4.72;;;31.70;42.00;;;;;;4421859;32;20154;-73
2021/06/15 11:40:28;;;;;;;10.50;5.25;;;32.40;42.70;;;;;;4420461;32;20563;-74
2021/06/15 11:43:19;;;;;;;8.25;4.72;;;32.10;41.30;;;;;;4421447;32;20517;-73
2021/06/15 11:45:53;;;;;;;10.70;5.28;;;31.90;42.40;;;;;;4423395;32;20155;-73
2021/06/15 11:48:34;;;;;;;7.57;5.05;;;31.10;42.70;;;;;;4423710;32;20134;-73
2021/06/15 11:51:08;;;;;;;9.93;4.78;;;30.90;44.50;;;;;;4425265;32;20188;-72
2021/06/15 11:53:38;;;;;;;8.13;5.10;;;31.50;44.70;;;;;;4426278;32;20432;-73
2021/06/15 11:56:10;;;;;;;7.37;4.62;;;31.50;42.30;;;;;;4425967;32;20143;-72
2021/06/15 11:58:43;;;;;;;7.60;4.70;;;31.70;42.80;;;;;;4426565;32;20231;-74
2021/06/15 12:01:12;;;;;;;8.13;5.00;;;32.00;43.40;;;;;;4426057;32;20469;-73
2021/06/15 12:03:41;;;;;;;8.38;5.12;;;31.80;41.00;;;;;;4427554;32;20131;-73
2021/06/15 12:06:10;;;;;;;7.78;5.00;;;31.60;41.70;;;;;;4425858;32;20214;-73
2021/06/15 12:08:49;;;;;;;7.80;5.03;;;31.60;41.40;;;;;;4425967;32;20146;-73
2021/06/15 12:11:18;;;;;;;8.95;4.80;;;31.80;43.90;;;;;;4426008;32;20155;-74
2021/06/15 12:13:48;;;;;;;7.70;4.87;;;32.40;43.10;;;;;;4412053;32;20222;-73
2021/06/15 12:16:18;;;;;;;8.80;5.00;;;32.20;42.40;;;;;;4425777;32;20147;-73
2021/06/15 12:18:47;;;;;;;10.82;5.40;;;32.50;42.00;;;;;;4425963;32;20198;-73
2021/06/15 12:21:21;;;;;;;7.78;4.90;;;32.00;40.80;;;;;;4425808;32;20143;-73
2021/06/15 12:23:52;;;;;;;6.82;4.72;;;31.50;42.60;;;;;;4425918;32;20143;-73
2021/06/15 12:26:34;;;;;;;10.32;5.12;;;30.80;42.20;;;;;;4425051;32;20158;-72
2021/06/15 12:29:02;;;;;;;101.85;11.75;;;29.60;44.30;;;;;;4426716;32;20147;-73
2021/06/15 12:31:33;;;;;;;8.68;5.43;;;29.80;46.20;;;;;;4426432;32;20186;-75
2021/06/15 12:34:03;;;;;;;8.27;5.82;;;30.00;44.90;;;;;;4430854;32;20209;-73
2021/06/15 13:11:24;;;;;;;19.65;6.78;;;31.10;43.30;;;;;;4425963;32;20192;-76
2021/06/15 13:13:54;;;;;;;21.27;7.43;;;31.60;43.80;;;;;;4424114;32;20134;-71
2021/06/15 13:16:21;;;;;;;11.05;5.28;;;32.20;42.30;;;;;;4424716;32;20558;-71
2021/06/15 13:19:19;;;;;;;11.12;5.70;;;32.60;43.10;;;;;;4424240;32;20151;-73
2021/06/15 13:21:55;;;;;;;22.45;5.93;;;32.80;41.40;;;;;;4348941;33;20240;-70
2021/06/15 13:24:35;;;;;;;9.43;5.47;;;33.30;42.00;;;;;;4348642;33;20195;-71
2021/06/15 13:27:21;;;;;;;10.48;5.15;;;33.50;40.40;;;;;;4347324;33;20167;-69
2021/06/15 13:29:49;;;;;;;10.05;5.35;;;33.90;39.30;;;;;;4347381;33;20433;-70
2021/06/15 13:32:26;;;;;;;9.10;5.20;;;33.40;39.90;;;;;;4361200;32;20393;-72
2021/06/15 13:35:04;;;;;;;9.73;5.97;;;33.10;39.60;;;;;;4352987;32;20163;-71
2021/06/15 13:37:37;;;;;;;10.48;5.68;;;32.90;41.30;;;;;;4350339;32;20243;-70
2021/06/15 13:40:08;;;;;;;14.55;6.03;;;33.10;41.20;;;;;;4354638;32;20278;-71
2021/06/15 13:42:37;;;;;;;9.07;5.37;;;33.10;42.80;;;;;;4361931;32;20156;-71